Nearby METAR Reports

 

KRYN - Tucson/Ryan Fld, Arizona, USA
Distance from station: SSW 16mi, 26km
Updated: Sun, 14-Jul-2024 4:45pm MST
NOT Current
Clear
Clear
 Wind from WNW
Wind: WNW 9 mph, 15 km/h, Gust: 17 mph, 28 km/h
Temperature: 100°F, 38°C
Dew Point: 54°F, 12°C
Humidity: 21%
Barometer: 29.96 inHg, 1014.6 hPa
Clouds: Clear
Visibility: 10 miles, 16 km
2024/07/14 23:45 KRYN 142345Z 30008G15KT 10SM CLR 38/12 A2996
KTUS - Tucson, Arizona, USA
Distance from station: SSE 18mi, 28km
Updated: Sun, 14-Jul-2024 9:53pm MST
Clear
Clear
 Wind from varies
Wind: varies 3 mph, 6 km/h
Temperature: 82°F, 28°C
Heat Index: 83°F, 28°C
Dew Point: 63°F, 17°C
Humidity: 51%
Barometer: 30.11 inHg, 1019.6 hPa
Clouds: Clear
Visibility: 10 miles, 16 km
2024/07/15 04:53 KTUS 150453Z VRB03KT 10SM CLR 28/17 A3011 RMK AO2 SLP143 T02780167 $
 
KDMA - Davis/Tucson, Arizona, USA
Distance from station: SE 18mi, 29km
Updated: Sun, 14-Jul-2024 9:55pm MST
Clear
Clear
 Wind from SSE
Wind: SSE 3 mph, 6 km/h
Temperature: 79°F, 26°C
Dew Point: 66°F, 19°C
Humidity: 65%
Barometer: 30.08 inHg, 1018.6 hPa
Clouds: Clear
Visibility: 10 miles, 16 km
2024/07/15 04:55 KDMA 150455Z AUTO 15003KT 10SM CLR 26/19 A3008 RMK AO2 SLP139 T02620191 $
KCGZ - Casa Granda, Arizona, USA
Distance from station: NW 57mi, 92km
Updated: Sun, 14-Jul-2024 9:56pm MST
Clear
Clear
 Wind from W
Wind: W 15 mph, 24 km/h
Temperature: 88°F, 31°C
Heat Index: 88°F, 31°C
Dew Point: 61°F, 16°C
Humidity: 40%
Barometer: 29.95 inHg, 1014.2 hPa
Clouds: Clear
Visibility: 10 miles, 16 km
2024/07/15 04:56 KCGZ 150456Z AUTO 28013KT 10SM CLR 31/16 A2995 RMK AO2 LTG DSNT SW AND NW RAE04B20E32 SLP124 T03060156 PNO $
 
KALK - Pioneer Airfield, Arizona, USA
Distance from station: SE 65mi, 104km
Updated: Sun, 14-Jul-2024 9:56pm MST
Clear
Clear
 Wind from WSW
Wind: WSW 10 mph, 17 km/h
Temperature: 77°F, 25°C
Dew Point: 61°F, 16°C
Humidity: 57%
Barometer: 30.25 inHg, 1024.4 hPa
Clouds: Clear
Visibility: 10 miles, 16 km
2024/07/15 04:56 KALK 150456Z AUTO 24009KT 10SM CLR 25/16 A3025 RMK AO2 SLP143 T02500156
KOLS - Nogales, Arizona, USA
Distance from station: S 67mi, 108km
Updated: Tue, 09-Jul-2024 9:54am MST
NOT Current

 Wind from varies
Wind: varies 6 mph, 9 km/h
Temperature: 91°F, 33°C
Dew Point: 57°F, 14°C
Humidity: 32%
Barometer: 30.06 inHg, 1017.9 hPa
2024/07/09 16:54 KOLS 091654Z AUTO VRB05KT 33/14 A3006 RMK AO2 SLP094 T03330144 $
 
KFHU - Fort Huachuca, Arizona, USA
Distance from station: SE 69mi, 110km
Updated: Sun, 14-Jul-2024 9:55pm MST
Mostly cloudy
Mostly cloudy
 Wind from W
Wind: W 10 mph, 17 km/h
Temperature: 79°F, 26°C
Dew Point: 61°F, 16°C
Humidity: 54%
Barometer: 30.24 inHg, 1024 hPa
Clouds: Mostly cloudy
Visibility: 10 miles, 16 km
Cloud details: Mostly cloudy 18000 ft
2024/07/15 04:55 KFHU 150455Z AUTO 27009KT 10SM BKN180 26/16 A3024 RMK AO2 SLP164 T02640160
KIWA - Chandler/Mesa, Arizona, USA
Distance from station: NNW 73mi, 117km
Updated: Sun, 14-Jul-2024 9:52pm MST
Mostly cloudy
Mostly cloudy
 Wind from WSW
Wind: WSW 22 mph, 35 km/h, Gust: 28 mph, 44 km/h
Temperature: 90°F, 32°C
Dew Point: 61°F, 16°C
Humidity: 38%
Barometer: 29.97 inHg, 1014.9 hPa
Clouds: Mostly cloudy
Visibility: 10 miles, 16 km
Cloud details: Few Clouds 12000 ft
Partly cloudy 15000 ft
Mostly cloudy 25000 ft
2024/07/15 04:52 KIWA 150452Z 24019G24KT 10SM FEW120 SCT150 BKN250 32/16 A2997